Time,TemperatureF,DewpointF,PressureIn,WindDirection,WindDirectionDegrees,WindSpeedMPH,WindSpeedGustMPH,Humidity,HourlyPrecipIn,Conditions,Clouds,dailyrainin,SolarRadiationWatts/m^2,SoftwareType,DateUTC
2013-02-15 00:10:00,47.7,44.0,29.97,NW,315,0.0,2.0,86,0.00,,,0.00,0,weatherlink.com 1.10,2013-02-15 05:10:00,
2013-02-15 00:25:00,47.6,43.0,29.99,NW,313,0.0,1.0,85,0.00,,,0.00,0,weatherlink.com 1.10,2013-02-15 05:25:00,
2013-02-15 00:40:00,47.3,43.0,29.98,NW,308,0.0,1.0,85,0.00,,,0.00,0,weatherlink.com 1.10,2013-02-15 05:40:00,
2013-02-15 00:55:00,47.0,43.0,29.97,NW,308,0.0,1.0,85,0.00,,,0.00,0,weatherlink.com 1.10,2013-02-15 05:55:00,
2013-02-15 01:10:00,46.8,42.0,29.97,NW,308,0.0,0.0,84,0.00,,,0.00,0,weatherlink.com 1.10,2013-02-15 06:10:00,
2013-02-15 01:29:00,46.5,42.0,29.97,NW,308,0.0,0.0,84,0.00,,,0.00,0,weatherlink.com 1.10,2013-02-15 06:29:00,
2013-02-15 01:41:00,46.1,42.0,29.97,NW,308,0.0,0.0,84,0.00,,,0.00,0,weatherlink.com 1.10,2013-02-15 06:41:00,
2013-02-15 01:56:00,45.7,41.0,29.97,NW,308,0.0,0.0,84,0.00,,,0.00,0,weatherlink.com 1.10,2013-02-15 06:56:00,
2013-02-15 02:11:00,45.2,41.0,29.97,NW,308,0.0,0.0,85,0.00,,,0.00,0,weatherlink.com 1.10,2013-02-15 07:11:00,
2013-02-15 02:26:00,44.8,41.0,29.97,NW,308,0.0,0.0,85,0.00,,,0.00,0,weatherlink.com 1.10,2013-02-15 07:26:00,
2013-02-15 02:41:00,44.5,41.0,29.96,NW,308,0.0,0.0,86,0.00,,,0.00,0,weatherlink.com 1.10,2013-02-15 07:41:00,
2013-02-15 02:56:00,44.2,40.0,29.96,NW,308,0.0,0.0,86,0.00,,,0.00,0,weatherlink.com 1.10,2013-02-15 07:56:00,
2013-02-15 03:11:00,44.1,41.0,29.97,NW,308,0.0,0.0,87,0.00,,,0.00,0,weatherlink.com 1.10,2013-02-15 08:11:00,
2013-02-15 03:26:00,44.1,41.0,29.98,NW,308,0.0,0.0,87,0.00,,,0.00,0,weatherlink.com 1.10,2013-02-15 08:26:00,
2013-02-15 03:41:00,44.2,41.0,29.96,North,360,0.0,0.0,88,0.00,,,0.00,0,weatherlink.com 1.10,2013-02-15 08:41:00,
2013-02-15 03:56:00,44.2,41.0,29.97,North,360,0.0,0.0,88,0.00,,,0.00,0,weatherlink.com 1.10,2013-02-15 08:56:00,
2013-02-15 04:11:00,43.9,41.0,29.98,North,360,0.0,0.0,88,0.00,,,0.00,0,weatherlink.com 1.10,2013-02-15 09:11:00,
2013-02-15 04:26:00,43.6,40.0,29.98,North,360,0.0,0.0,88,0.00,,,0.00,0,weatherlink.com 1.10,2013-02-15 09:26:00,
2013-02-15 04:41:00,43.3,40.0,29.98,North,360,0.0,0.0,88,0.00,,,0.00,0,weatherlink.com 1.10,2013-02-15 09:41:00,
2013-02-15 04:56:00,43.2,40.0,29.98,North,360,0.0,0.0,89,0.00,,,0.00,0,weatherlink.com 1.10,2013-02-15 09:56:00,
2013-02-15 05:11:00,43.2,40.0,29.99,North,360,0.0,0.0,89,0.00,,,0.00,0,weatherlink.com 1.10,2013-02-15 10:11:00,
2013-02-15 05:26:00,43.1,40.0,30.00,North,360,0.0,0.0,89,0.00,,,0.00,0,weatherlink.com 1.10,2013-02-15 10:26:00,
2013-02-15 05:41:00,42.9,40.0,29.98,North,5,0.0,3.0,89,0.00,,,0.00,0,weatherlink.com 1.10,2013-02-15 10:41:00,
2013-02-15 05:56:00,42.8,40.0,29.98,North,5,0.0,0.0,89,0.00,,,0.00,0,weatherlink.com 1.10,2013-02-15 10:56:00,
2013-02-15 06:11:00,42.3,39.0,29.98,North,5,0.0,0.0,89,0.00,,,0.00,0,weatherlink.com 1.10,2013-02-15 11:11:00,
2013-02-15 06:26:00,42.1,39.0,29.98,North,355,0.0,1.0,90,0.00,,,0.00,0,weatherlink.com 1.10,2013-02-15 11:26:00,
2013-02-15 06:41:00,41.8,39.0,29.98,North,355,0.0,0.0,90,0.00,,,0.00,0,weatherlink.com 1.10,2013-02-15 11:41:00,
2013-02-15 06:56:00,41.8,39.0,30.00,North,355,0.0,1.0,90,0.00,,,0.00,0,weatherlink.com 1.10,2013-02-15 11:56:00,
2013-02-15 07:11:00,41.8,39.0,30.00,North,355,0.0,0.0,90,0.00,,,0.00,0,weatherlink.com 1.10,2013-02-15 12:11:00,
2013-02-15 07:26:00,41.8,39.0,30.00,North,355,0.0,0.0,90,0.00,,,0.00,14,weatherlink.com 1.10,2013-02-15 12:26:00,
2013-02-15 07:41:00,41.9,40.0,30.01,North,355,0.0,0.0,91,0.00,,,0.00,70,weatherlink.com 1.10,2013-02-15 12:41:00,
2013-02-15 07:56:00,42.6,40.0,30.01,North,355,0.0,0.0,91,0.00,,,0.00,116,weatherlink.com 1.10,2013-02-15 12:56:00,
2013-02-15 08:12:00,44.5,42.0,30.02,North,355,0.0,1.0,92,0.00,,,0.00,165,weatherlink.com 1.10,2013-02-15 13:12:00,
2013-02-15 08:27:00,46.2,44.0,30.02,North,355,0.0,2.0,91,0.00,,,0.00,213,weatherlink.com 1.10,2013-02-15 13:27:00,
2013-02-15 08:42:00,47.9,45.0,30.02,North,355,0.0,6.0,89,0.00,,,0.00,267,weatherlink.com 1.10,2013-02-15 13:42:00,
2013-02-15 08:57:00,49.4,46.0,30.03,ENE,70,2.0,3.0,87,0.00,,,0.00,320,weatherlink.com 1.10,2013-02-15 13:57:00,
2013-02-15 09:12:00,50.7,46.0,30.03,East,86,0.0,2.0,84,0.00,,,0.00,237,weatherlink.com 1.10,2013-02-15 14:12:00,
2013-02-15 09:27:00,51.7,46.0,30.03,WNW,301,0.0,3.0,81,0.00,,,0.00,158,weatherlink.com 1.10,2013-02-15 14:27:00,
2013-02-15 09:42:00,52.5,46.0,30.03,East,84,0.0,2.0,79,0.00,,,0.00,90,weatherlink.com 1.10,2013-02-15 14:42:00,
2013-02-15 09:57:00,53.5,46.0,30.03,NE,36,0.0,3.0,77,0.00,,,0.00,338,weatherlink.com 1.10,2013-02-15 14:57:00,
2013-02-15 10:12:00,54.4,47.0,30.03,East,99,0.0,7.0,75,0.00,,,0.00,183,weatherlink.com 1.10,2013-02-15 15:12:00,
2013-02-15 10:27:00,55.3,47.0,30.02,East,90,0.0,6.0,74,0.00,,,0.00,158,weatherlink.com 1.10,2013-02-15 15:27:00,
2013-02-15 10:42:00,56.0,46.0,30.02,East,98,0.0,7.0,70,0.00,,,0.00,116,weatherlink.com 1.10,2013-02-15 15:42:00,
2013-02-15 10:57:00,56.9,47.0,30.03,NW,319,0.0,5.0,69,0.00,,,0.00,276,weatherlink.com 1.10,2013-02-15 15:57:00,
2013-02-15 11:13:00,57.6,46.0,30.02,NE,37,1.0,3.0,65,0.00,,,0.00,70,weatherlink.com 1.10,2013-02-15 16:13:00,
2013-02-15 11:27:00,58.3,46.0,30.02,NNW,327,0.0,5.0,65,0.00,,,0.00,100,weatherlink.com 1.10,2013-02-15 16:27:00,
2013-02-15 11:42:00,58.1,45.0,30.01,North,11,0.0,7.0,63,0.00,,,0.00,116,weatherlink.com 1.10,2013-02-15 16:42:00,
2013-02-15 11:58:00,58.7,46.0,30.01,NNW,342,0.0,5.0,63,0.00,,,0.00,88,weatherlink.com 1.10,2013-02-15 16:58:00,
2013-02-15 12:13:00,59.2,46.0,30.01,NNE,28,2.0,5.0,61,0.00,,,0.00,207,weatherlink.com 1.10,2013-02-15 17:13:00,
2013-02-15 12:28:00,59.8,46.0,30.00,West,279,0.0,5.0,61,0.00,,,0.00,773,weatherlink.com 1.10,2013-02-15 17:28:00,
2013-02-15 12:43:00,61.5,46.0,30.00,NE,49,0.0,4.0,58,0.00,,,0.00,793,weatherlink.com 1.10,2013-02-15 17:43:00,
2013-02-15 12:58:00,63.2,47.0,29.99,ENE,78,1.0,4.0,56,0.00,,,0.00,816,weatherlink.com 1.10,2013-02-15 17:58:00,
2013-02-15 13:13:00,64.0,48.0,29.98,West,269,3.0,5.0,56,0.00,,,0.00,679,weatherlink.com 1.10,2013-02-15 18:13:00,
2013-02-15 13:28:00,65.2,48.0,29.97,SW,236,0.0,7.0,55,0.00,,,0.00,749,weatherlink.com 1.10,2013-02-15 18:28:00,
2013-02-15 13:43:00,65.6,47.0,29.96,WNW,289,0.0,7.0,52,0.00,,,0.00,722,weatherlink.com 1.10,2013-02-15 18:43:00,
2013-02-15 13:58:00,65.8,46.0,29.96,West,271,0.0,4.0,49,0.00,,,0.00,705,weatherlink.com 1.10,2013-02-15 18:58:00,
2013-02-15 14:13:00,66.0,46.0,29.95,West,267,2.0,6.0,49,0.00,,,0.00,682,weatherlink.com 1.10,2013-02-15 19:13:00,
2013-02-15 14:28:00,66.4,45.0,29.94,NW,313,0.0,7.0,47,0.00,,,0.00,657,weatherlink.com 1.10,2013-02-15 19:28:00,
2013-02-15 14:43:00,66.8,44.0,29.94,West,271,0.0,8.0,44,0.00,,,0.00,631,weatherlink.com 1.10,2013-02-15 19:43:00,
2013-02-15 14:58:00,67.4,43.0,29.93,WNW,288,0.0,3.0,41,0.00,,,0.00,601,weatherlink.com 1.10,2013-02-15 19:58:00,
2013-02-15 15:13:00,67.9,44.0,29.93,West,270,2.0,4.0,42,0.00,,,0.00,559,weatherlink.com 1.10,2013-02-15 20:13:00,
2013-02-15 15:28:00,67.8,43.0,29.92,WNW,301,0.0,3.0,41,0.00,,,0.00,515,weatherlink.com 1.10,2013-02-15 20:28:00,
2013-02-15 15:43:00,67.8,42.0,29.92,WNW,290,0.0,1.0,39,0.00,,,0.00,471,weatherlink.com 1.10,2013-02-15 20:43:00,
2013-02-15 15:58:00,67.4,43.0,29.91,WNW,293,0.0,2.0,41,0.00,,,0.00,431,weatherlink.com 1.10,2013-02-15 20:58:00,
2013-02-15 16:13:00,67.1,42.0,29.91,NNW,333,0.0,4.0,40,0.00,,,0.00,378,weatherlink.com 1.10,2013-02-15 21:13:00,
2013-02-15 16:28:00,66.4,45.0,29.90,NNE,33,0.0,2.0,47,0.00,,,0.00,329,weatherlink.com 1.10,2013-02-15 21:28:00,
2013-02-15 16:43:00,65.3,45.0,29.90,East,84,2.0,5.0,49,0.00,,,0.00,276,weatherlink.com 1.10,2013-02-15 21:43:00,
2013-02-15 16:58:00,64.7,45.0,29.91,East,83,0.0,2.0,50,0.00,,,0.00,225,weatherlink.com 1.10,2013-02-15 21:58:00,
2013-02-15 17:13:00,63.7,47.0,29.90,ESE,105,0.0,4.0,54,0.00,,,0.00,91,weatherlink.com 1.10,2013-02-15 22:13:00,
2013-02-15 17:28:00,62.0,46.0,29.91,NE,37,0.0,7.0,56,0.00,,,0.00,90,weatherlink.com 1.10,2013-02-15 22:28:00,
2013-02-15 17:44:00,60.5,45.0,29.91,ESE,115,0.0,5.0,58,0.00,,,0.00,53,weatherlink.com 1.10,2013-02-15 22:44:00,
2013-02-15 17:59:00,59.3,45.0,29.91,ESE,104,1.0,4.0,60,0.00,,,0.00,16,weatherlink.com 1.10,2013-02-15 22:59:00,
2013-02-15 18:14:00,58.4,45.0,29.91,ESE,103,0.0,1.0,62,0.00,,,0.00,5,weatherlink.com 1.10,2013-02-15 23:14:00,
2013-02-15 18:29:00,57.5,45.0,29.91,ESE,103,0.0,2.0,64,0.00,,,0.00,0,weatherlink.com 1.10,2013-02-15 23:29:00,
2013-02-15 18:44:00,56.6,45.0,29.91,ESE,103,0.0,1.0,65,0.00,,,0.00,0,weatherlink.com 1.10,2013-02-15 23:44:00,
2013-02-15 18:58:00,56.0,45.0,29.91,ESE,103,0.0,1.0,67,0.00,,,0.00,0,weatherlink.com 1.10,2013-02-15 23:58:00,
2013-02-15 19:14:00,55.4,45.0,29.92,ESE,103,0.0,0.0,68,0.00,,,0.00,0,weatherlink.com 1.10,2013-02-16 00:14:00,
2013-02-15 19:29:00,54.5,44.0,29.92,ESE,103,0.0,0.0,69,0.00,,,0.00,0,weatherlink.com 1.10,2013-02-16 00:29:00,
2013-02-15 19:44:00,53.6,44.0,29.92,ESE,103,0.0,0.0,70,0.00,,,0.00,0,weatherlink.com 1.10,2013-02-16 00:44:00,
2013-02-15 19:59:00,52.5,43.0,29.92,ESE,103,0.0,0.0,71,0.00,,,0.00,0,weatherlink.com 1.10,2013-02-16 00:59:00,
2013-02-15 20:14:00,51.7,43.0,29.92,ESE,103,0.0,0.0,72,0.00,,,0.00,0,weatherlink.com 1.10,2013-02-16 01:14:00,
2013-02-15 20:29:00,51.0,43.0,29.92,ESE,103,0.0,0.0,73,0.00,,,0.00,0,weatherlink.com 1.10,2013-02-16 01:29:00,
2013-02-15 20:44:00,50.2,43.0,29.93,ESE,103,0.0,0.0,75,0.00,,,0.00,0,weatherlink.com 1.10,2013-02-16 01:44:00,
2013-02-15 20:59:00,49.6,42.0,29.93,ESE,103,0.0,0.0,76,0.00,,,0.00,0,weatherlink.com 1.10,2013-02-16 01:59:00,
2013-02-15 21:14:00,49.1,42.0,29.93,ESE,103,0.0,0.0,77,0.00,,,0.00,0,weatherlink.com 1.10,2013-02-16 02:14:00,
2013-02-15 21:29:00,48.5,42.0,29.93,ESE,103,0.0,0.0,78,0.00,,,0.00,0,weatherlink.com 1.10,2013-02-16 02:29:00,
2013-02-15 21:44:00,47.9,42.0,29.93,ESE,103,0.0,0.0,79,0.00,,,0.00,0,weatherlink.com 1.10,2013-02-16 02:44:00,
2013-02-15 21:59:00,47.4,42.0,29.93,ESE,103,0.0,0.0,80,0.00,,,0.00,0,weatherlink.com 1.10,2013-02-16 02:59:00,
2013-02-15 22:14:00,46.8,41.0,29.93,ESE,103,0.0,0.0,81,0.00,,,0.00,0,weatherlink.com 1.10,2013-02-16 03:14:00,
2013-02-15 22:29:00,46.4,41.0,29.93,ESE,103,0.0,0.0,82,0.00,,,0.00,0,weatherlink.com 1.10,2013-02-16 03:29:00,
2013-02-15 22:44:00,46.1,41.0,29.92,ESE,103,0.0,0.0,82,0.00,,,0.00,0,weatherlink.com 1.10,2013-02-16 03:44:00,
2013-02-15 22:59:00,45.7,41.0,29.92,ESE,103,0.0,0.0,83,0.00,,,0.00,0,weatherlink.com 1.10,2013-02-16 03:59:00,
2013-02-15 23:14:00,45.4,41.0,29.92,ESE,103,0.0,0.0,84,0.00,,,0.00,0,weatherlink.com 1.10,2013-02-16 04:14:00,
2013-02-15 23:29:00,45.1,41.0,29.92,ESE,103,0.0,0.0,84,0.00,,,0.00,0,weatherlink.com 1.10,2013-02-16 04:29:00,
2013-02-15 23:44:00,44.8,40.0,29.92,ESE,103,0.0,0.0,84,0.00,,,0.00,0,weatherlink.com 1.10,2013-02-16 04:44:00,